createdAt,value
2023-05-14T00:00:02.687Z,1015.0
2023-05-14T00:15:03.130Z,1014.8
2023-05-14T00:30:02.642Z,1014.6
2023-05-14T00:45:02.978Z,1014.5
2023-05-14T01:00:02.641Z,1014.5
2023-05-14T01:15:02.847Z,1014.5
2023-05-14T01:30:02.268Z,1014.6
2023-05-14T01:45:02.725Z,1014.4
2023-05-14T02:00:03.133Z,1014.5
2023-05-14T02:15:02.619Z,1014.3
2023-05-14T02:30:03.037Z,1014.1
2023-05-14T02:45:02.636Z,1013.9
2023-05-14T03:00:02.938Z,1014.0
2023-05-14T03:15:02.556Z,1013.9
2023-05-14T03:30:02.809Z,1013.9
2023-05-14T03:45:02.267Z,1013.8
2023-05-14T04:00:02.693Z,1014.0
2023-05-14T04:15:03.131Z,1013.9
2023-05-14T04:30:02.666Z,1013.8
2023-05-14T04:45:03.015Z,1013.8
2023-05-14T05:00:02.644Z,1013.6
2023-05-14T05:15:02.895Z,1013.9
2023-05-14T05:30:02.330Z,1014.0
2023-05-14T05:45:02.779Z,1014.0
2023-05-14T06:00:03.194Z,1014.1
2023-05-14T06:15:02.654Z,1014.1
2023-05-14T06:30:03.087Z,1014.1
2023-05-14T06:45:02.690Z,1014.1
2023-05-14T07:00:03.461Z,1014.1
2023-05-14T07:15:02.386Z,1014.0
2023-05-14T07:30:02.827Z,1013.9
2023-05-14T07:45:02.264Z,1013.9
2023-05-14T08:00:02.694Z,1013.9
2023-05-14T08:15:03.134Z,1013.7
2023-05-14T08:30:02.719Z,1013.8
2023-05-14T08:45:03.015Z,1013.7
2023-05-14T09:00:02.625Z,1013.5
2023-05-14T09:15:02.881Z,1013.5
2023-05-14T09:30:02.318Z,1013.3
2023-05-14T09:45:02.761Z,1013.2
2023-05-14T10:00:03.193Z,1013.2
2023-05-14T10:15:02.700Z,1013.0
2023-05-14T10:30:03.081Z,1012.8
2023-05-14T10:45:02.708Z,1012.8
2023-05-14T11:00:02.954Z,1012.5
2023-05-14T11:15:02.377Z,1012.6
2023-05-14T11:30:02.802Z,1012.4
2023-05-14T11:45:02.244Z,1012.3
2023-05-14T12:00:02.707Z,1012.1
2023-05-14T12:15:03.139Z,1012.1
2023-05-14T12:30:19.060Z,1011.8
2023-05-14T12:45:03.001Z,1011.7
2023-05-14T13:00:02.532Z,1011.5
2023-05-14T13:15:02.885Z,1011.3
2023-05-14T13:30:02.334Z,1011.3
2023-05-14T13:45:02.736Z,1011.2
2023-05-14T14:00:03.210Z,1011.0
2023-05-14T14:15:02.752Z,1010.7
2023-05-14T14:30:02.075Z,1010.7
2023-05-14T14:45:02.746Z,1010.6
2023-05-14T15:00:02.982Z,1010.5
2023-05-14T15:15:02.382Z,1010.4
2023-05-14T15:30:02.844Z,1010.4
2023-05-14T15:45:02.282Z,1010.3
2023-05-14T16:00:02.757Z,1010.3
2023-05-14T16:15:03.130Z,1010.2
2023-05-14T16:30:02.856Z,1010.1
2023-05-14T17:00:02.443Z,1010.1
2023-05-14T17:15:05.346Z,1010.1
2023-05-14T17:30:03.325Z,1010.1
2023-05-14T17:45:02.747Z,1010.2
2023-05-14T18:00:03.193Z,1010.3
2023-05-14T18:15:02.802Z,1010.4
2023-05-14T18:30:02.089Z,1010.3
2023-05-14T18:45:02.519Z,1010.4
2023-05-14T19:00:02.936Z,1010.3
2023-05-14T19:15:02.402Z,1010.4
2023-05-14T19:30:02.843Z,1010.4
2023-05-14T19:45:02.241Z,1010.5
2023-05-14T20:00:02.815Z,1010.6
2023-05-14T20:15:03.138Z,1010.5
2023-05-14T20:30:02.723Z,1010.4
2023-05-14T20:45:03.001Z,1010.3
2023-05-14T21:00:02.433Z,1010.3
2023-05-14T21:15:02.882Z,1010.3
2023-05-14T21:30:02.312Z,1010.3
2023-05-14T21:45:02.832Z,1010.1
2023-05-14T22:00:02.207Z,1009.9
2023-05-14T22:15:02.835Z,1009.8
2023-05-14T22:30:02.082Z,1009.7
2023-05-14T22:45:02.539Z,1009.7
2023-05-14T23:00:02.989Z,1009.6
2023-05-14T23:15:02.396Z,1009.6
2023-05-14T23:30:02.907Z,1009.4
2023-05-14T23:45:02.301Z,1009.2
